createdAt,value
2023-03-02T04:52:59.940Z,7.95
2023-03-02T04:55:27.570Z,7.30
2023-03-02T04:57:54.053Z,6.88
2023-03-02T05:00:23.042Z,6.72
2023-03-02T05:02:49.761Z,5.72
2023-03-02T05:05:23.955Z,7.10
2023-03-02T05:07:51.342Z,6.67
2023-03-02T05:10:19.368Z,6.05
2023-03-02T05:12:55.760Z,5.50
2023-03-02T05:15:27.123Z,6.03
2023-03-02T05:17:55.917Z,5.78
2023-03-02T05:20:27.471Z,5.50
2023-03-02T05:22:55.736Z,5.68
2023-03-02T05:25:26.932Z,5.63
2023-03-02T05:27:53.631Z,5.38
2023-03-02T05:30:22.592Z,5.53
2023-03-02T05:32:49.785Z,5.40
2023-03-02T05:35:19.074Z,5.80
2023-03-02T05:37:45.799Z,5.90
2023-03-02T05:40:15.959Z,5.68
2023-03-02T05:42:43.050Z,5.88
2023-03-02T05:45:21.467Z,6.10
2023-03-02T05:47:48.125Z,5.50
2023-03-02T05:50:14.873Z,5.47
2023-03-02T05:52:41.625Z,5.82
2023-03-02T05:55:08.601Z,5.70
2023-03-02T05:57:35.228Z,6.67
2023-03-02T06:00:05.863Z,5.35
2023-03-02T06:02:32.470Z,5.97
2023-03-02T06:04:58.979Z,6.07
2023-03-02T06:07:27.322Z,5.68
2023-03-02T06:09:53.836Z,6.10
2023-03-02T06:12:20.369Z,6.72
2023-03-02T06:14:47.065Z,6.00
2023-03-02T06:17:13.861Z,6.38
2023-03-02T06:19:40.386Z,6.07
2023-03-02T06:22:06.876Z,5.80
2023-03-02T06:24:33.401Z,6.18
2023-03-02T06:27:00.448Z,5.63
2023-03-02T06:29:27.055Z,5.22
2023-03-02T06:31:55.961Z,5.85
2023-03-02T06:34:22.711Z,5.73
2023-03-02T06:36:51.346Z,5.38
2023-03-02T06:39:17.947Z,6.03
2023-03-02T06:41:45.890Z,6.30
2023-03-02T06:44:13.161Z,5.93
2023-03-02T06:46:40.380Z,5.60
2023-03-02T06:49:06.924Z,5.80
2023-03-02T06:51:33.607Z,6.00
2023-03-02T06:54:00.457Z,5.88
2023-03-02T06:56:30.720Z,5.38
2023-03-02T06:58:57.381Z,6.00
2023-03-02T07:01:26.241Z,5.70
2023-03-02T07:03:57.397Z,6.13
2023-03-02T07:06:24.031Z,7.05
2023-03-02T07:08:50.571Z,7.70
2023-03-02T07:11:17.172Z,8.03
2023-03-02T07:13:43.799Z,9.68
2023-03-02T07:16:14.246Z,9.70
2023-03-02T07:18:41.050Z,9.25
2023-03-02T07:21:08.011Z,9.80
2023-03-02T07:23:37.172Z,10.13
2023-03-02T07:26:08.516Z,10.00
2023-03-02T07:28:39.673Z,9.90
2023-03-02T07:31:09.121Z,10.15
2023-03-02T07:33:37.031Z,11.70
2023-03-02T07:36:04.010Z,10.13
2023-03-02T07:38:30.732Z,11.70
2023-03-02T07:40:59.615Z,10.48
2023-03-02T07:43:27.308Z,10.85
2023-03-02T07:45:53.891Z,10.50
2023-03-02T07:48:23.202Z,9.40
2023-03-02T07:50:52.075Z,9.52
2023-03-02T07:53:18.644Z,9.18
2023-03-02T07:55:45.201Z,9.40
2023-03-02T07:58:14.067Z,8.73
2023-03-02T08:00:42.638Z,8.50
2023-03-02T08:03:09.377Z,9.13
2023-03-02T08:05:38.047Z,7.85
2023-03-02T08:08:09.440Z,8.63
2023-03-02T08:10:38.741Z,8.50
2023-03-02T08:13:05.345Z,7.80
2023-03-02T08:15:34.133Z,6.50
2023-03-02T08:18:05.528Z,7.43
2023-03-02T08:20:32.104Z,6.03
2023-03-02T08:22:58.706Z,6.25
2023-03-02T08:25:25.327Z,6.07
2023-03-02T08:27:52.034Z,5.68
2023-03-02T08:30:19.018Z,5.90
2023-03-02T08:32:45.709Z,6.15
2023-03-02T08:35:12.946Z,6.22
2023-03-02T08:37:39.555Z,6.93
2023-03-02T08:40:06.860Z,6.40
2023-03-02T08:42:33.424Z,7.93
2023-03-02T08:45:00.024Z,6.68
2023-03-02T08:47:26.736Z,6.72
2023-03-02T08:49:56.291Z,6.90
2023-03-02T08:52:22.956Z,6.63
2023-03-02T08:54:54.306Z,6.50
2023-03-02T08:57:21.425Z,6.28
2023-03-02T08:59:48.072Z,7.30
2023-03-02T09:02:14.739Z,7.00
2023-03-02T09:04:41.434Z,7.45
2023-03-02T09:07:08.139Z,6.70
2023-03-02T09:09:34.700Z,6.68
2023-03-02T09:12:01.425Z,6.53
2023-03-02T09:14:28.123Z,6.37
2023-03-02T09:16:54.803Z,6.93
2023-03-02T09:19:21.601Z,6.85
2023-03-02T09:21:48.635Z,6.72
2023-03-02T09:24:15.358Z,7.28
2023-03-02T09:26:41.928Z,6.47
2023-03-02T09:29:08.497Z,7.30
2023-03-02T09:31:36.672Z,6.47
2023-03-02T09:34:07.035Z,6.47
2023-03-02T09:36:38.098Z,6.47
2023-03-02T09:39:09.530Z,7.00
2023-03-02T09:42:32.119Z,6.60
2023-03-02T09:45:17.915Z,6.55
2023-03-02T09:48:00.121Z,6.10
2023-03-02T09:50:34.326Z,7.18
2023-03-02T09:53:25.177Z,7.43
2023-03-02T09:55:57.384Z,6.82
2023-03-02T09:58:25.630Z,6.88
2023-03-02T10:00:54.835Z,6.70
2023-03-02T10:03:24.001Z,7.55
2023-03-02T10:05:55.023Z,7.50
2023-03-02T10:08:25.098Z,7.03
2023-03-02T10:11:09.179Z,6.85
2023-03-02T10:13:49.340Z,6.95
2023-03-02T10:16:41.578Z,7.22
2023-03-02T10:19:20.279Z,6.73
2023-03-02T10:21:49.615Z,7.32
2023-03-02T10:24:37.590Z,7.38
2023-03-02T10:27:28.251Z,7.40
2023-03-02T10:30:07.262Z,6.50
2023-03-02T10:32:38.749Z,7.30
2023-03-02T10:35:44.601Z,7.18
2023-03-02T10:38:18.557Z,6.80
2023-03-02T10:41:02.615Z,6.10
2023-03-02T10:43:36.353Z,6.55
2023-03-02T10:46:11.000Z,6.60
2023-03-02T10:48:56.347Z,6.50
2023-03-02T10:51:34.384Z,6.43
2023-03-02T10:54:14.060Z,6.63
2023-03-02T10:56:49.236Z,6.50
2023-03-02T10:59:33.875Z,6.20
2023-03-02T11:02:09.936Z,6.45
2023-03-02T11:04:39.945Z,6.55
2023-03-02T11:07:17.570Z,5.85
2023-03-02T11:10:07.194Z,5.70
2023-03-02T11:12:36.979Z,5.63
2023-03-02T11:15:23.395Z,6.03
2023-03-02T11:18:15.462Z,5.43
2023-03-02T11:20:44.846Z,4.50
2023-03-02T11:23:43.391Z,5.00
2023-03-02T11:26:23.905Z,5.17
2023-03-02T11:29:00.926Z,5.88
2023-03-02T11:31:43.545Z,4.95
2023-03-02T11:35:02.885Z,5.60
2023-03-02T11:37:40.422Z,5.72
2023-03-02T11:40:23.901Z,5.57
2023-03-02T11:42:53.370Z,5.53
2023-03-02T11:45:27.675Z,5.80
2023-03-02T11:48:03.281Z,5.90
2023-03-02T11:50:32.934Z,5.70
2023-03-02T11:53:02.017Z,6.17
2023-03-02T11:55:30.215Z,6.43
2023-03-02T11:58:02.851Z,5.50
2023-03-02T12:00:36.056Z,5.88
2023-03-02T12:03:14.858Z,5.78
2023-03-02T12:05:45.743Z,6.10
2023-03-02T12:08:15.407Z,6.40
2023-03-02T12:10:55.884Z,7.05
2023-03-02T12:13:29.166Z,5.78
2023-03-02T12:15:58.592Z,6.22
2023-03-02T12:18:25.166Z,6.90
2023-03-02T12:21:20.214Z,5.88
2023-03-02T12:23:49.898Z,5.75
2023-03-02T12:26:36.647Z,5.93
2023-03-02T12:29:09.446Z,6.10
2023-03-02T12:31:47.640Z,5.97
2023-03-02T12:34:45.080Z,5.78
2023-03-02T12:37:19.229Z,5.85
2023-03-02T12:40:23.427Z,5.45
2023-03-02T12:42:59.194Z,5.10
2023-03-02T12:45:41.730Z,4.97
2023-03-02T12:48:28.433Z,4.78
2023-03-02T12:51:02.965Z,5.63
2023-03-02T12:53:29.817Z,4.93
2023-03-02T12:55:56.557Z,5.00
2023-03-02T12:58:28.399Z,5.13
2023-03-02T13:00:58.389Z,5.90
2023-03-02T13:03:26.473Z,5.43
2023-03-02T13:06:03.730Z,5.03
2023-03-02T13:08:30.853Z,5.50
2023-03-02T13:11:08.641Z,5.50
2023-03-02T13:13:43.718Z,4.90
2023-03-02T13:16:23.846Z,5.57
2023-03-02T13:18:56.921Z,5.53
2023-03-02T13:21:35.077Z,5.80
2023-03-02T13:24:01.804Z,5.60
2023-03-02T13:26:33.785Z,6.07
2023-03-02T13:29:02.864Z,5.63
2023-03-02T13:31:29.984Z,5.93
2023-03-02T13:33:57.290Z,5.20
2023-03-02T13:36:28.803Z,5.80
2023-03-02T13:39:02.208Z,5.93
2023-03-02T13:41:34.501Z,6.20
2023-03-02T13:44:17.163Z,5.85
2023-03-02T13:46:46.074Z,5.43
2023-03-02T13:49:14.699Z,5.10
2023-03-02T13:51:44.369Z,5.60
2023-03-02T13:54:23.479Z,5.20
2023-03-02T13:56:51.274Z,5.68
2023-03-02T13:59:19.986Z,5.30
2023-03-02T14:01:46.685Z,5.70
2023-03-02T14:04:14.807Z,5.47
2023-03-02T14:06:41.322Z,5.85
2023-03-02T14:09:10.170Z,5.93
2023-03-02T14:11:39.990Z,5.53
2023-03-02T14:14:07.315Z,5.73
2023-03-02T14:16:37.174Z,6.10
2023-03-02T14:19:03.765Z,5.68
2023-03-02T14:21:30.527Z,6.05
2023-03-02T14:23:58.912Z,5.65
2023-03-02T14:26:43.502Z,5.80
2023-03-02T14:29:31.165Z,5.35
2023-03-02T14:32:06.552Z,5.25
2023-03-02T14:34:35.567Z,5.38
2023-03-02T14:37:07.761Z,5.07
2023-03-02T14:39:41.975Z,4.93
2023-03-02T14:42:13.644Z,4.80
2023-03-02T14:44:41.252Z,4.93
2023-03-02T14:47:10.031Z,5.38
2023-03-02T14:49:37.587Z,5.13
2023-03-02T14:52:18.057Z,5.03
2023-03-02T14:54:47.875Z,4.68
2023-03-02T14:57:20.198Z,5.40
2023-03-02T14:59:47.311Z,5.40
2023-03-02T15:02:25.331Z,4.78
2023-03-02T15:04:56.059Z,5.50
2023-03-02T15:07:24.903Z,4.63
2023-03-02T15:09:51.407Z,4.63
2023-03-02T15:12:20.229Z,4.80
2023-03-02T15:14:46.746Z,4.90
2023-03-02T15:17:13.301Z,4.43
2023-03-02T15:19:39.795Z,4.35
2023-03-02T15:22:06.328Z,4.50
2023-03-02T15:24:33.493Z,4.47
2023-03-02T15:27:00.318Z,4.15
2023-03-02T15:29:26.822Z,4.00
2023-03-02T15:31:53.503Z,5.15
2023-03-02T15:34:20.133Z,4.50
2023-03-02T15:36:46.651Z,4.40
2023-03-02T15:39:16.449Z,4.32
2023-03-02T15:41:43.006Z,4.27
2023-03-02T15:44:23.015Z,4.30
2023-03-02T15:46:50.488Z,4.40
2023-03-02T15:49:22.870Z,4.25
2023-03-02T15:51:51.614Z,4.43
2023-03-02T15:54:18.664Z,4.30
2023-03-02T15:56:45.340Z,4.38
2023-03-02T15:59:12.082Z,4.35
2023-03-02T16:01:38.662Z,4.88
2023-03-02T16:04:05.177Z,4.25
2023-03-02T16:06:34.020Z,4.23
2023-03-02T16:09:00.628Z,4.88
2023-03-02T16:11:27.206Z,4.38
2023-03-02T16:13:53.825Z,4.82
2023-03-02T16:16:21.219Z,5.07
2023-03-02T16:18:55.000Z,4.97
2023-03-02T16:21:22.218Z,5.53
2023-03-02T16:23:48.805Z,5.78
2023-03-02T16:26:17.303Z,5.65
2023-03-02T16:28:43.827Z,5.30
2023-03-02T16:31:13.539Z,5.43
2023-03-02T16:33:40.828Z,5.38
2023-03-02T16:36:08.406Z,6.25
2023-03-02T16:38:36.841Z,6.18
2023-03-02T16:41:04.931Z,5.90
2023-03-02T16:43:31.437Z,6.07
2023-03-02T16:45:58.030Z,6.00
2023-03-02T16:48:24.533Z,5.93
2023-03-02T16:50:56.268Z,5.57
2023-03-02T16:53:23.073Z,6.32
2023-03-02T16:55:50.580Z,6.03
2023-03-02T16:58:17.346Z,6.22
2023-03-02T17:00:43.948Z,5.38
2023-03-02T17:03:10.492Z,6.35
2023-03-02T17:05:37.017Z,6.40
2023-03-02T17:08:05.210Z,6.07
2023-03-02T17:10:31.909Z,6.90
2023-03-02T17:12:58.440Z,6.60
2023-03-02T17:15:24.939Z,7.50
2023-03-02T17:17:51.446Z,7.78
2023-03-02T17:20:20.489Z,8.93
2023-03-02T17:22:47.276Z,9.52
2023-03-02T17:25:14.222Z,9.68
2023-03-02T17:27:40.790Z,9.15
2023-03-02T17:30:12.466Z,10.35
2023-03-02T17:32:39.851Z,11.40
2023-03-02T17:35:08.038Z,11.35
2023-03-02T17:37:34.959Z,9.88
2023-03-02T17:40:01.518Z,10.88
2023-03-02T17:42:28.237Z,10.95
2023-03-02T17:44:54.714Z,11.93
2023-03-02T17:47:21.263Z,12.05
2023-03-02T17:49:47.900Z,11.98
2023-03-02T17:52:17.766Z,12.25
2023-03-02T17:54:44.856Z,12.00
2023-03-02T17:57:12.010Z,10.17
2023-03-02T17:59:38.565Z,10.60
2023-03-02T18:02:05.213Z,11.55
2023-03-02T18:04:31.750Z,9.93
2023-03-02T18:07:01.621Z,10.48
2023-03-02T18:09:28.158Z,10.37
2023-03-02T18:11:54.652Z,11.13
2023-03-02T18:14:21.282Z,10.95
2023-03-02T18:16:47.914Z,10.13
2023-03-02T18:19:14.730Z,12.40
2023-03-02T18:21:42.466Z,10.53
2023-03-02T18:24:09.592Z,11.90
2023-03-02T18:26:36.708Z,11.20
2023-03-02T18:29:03.772Z,11.35
2023-03-02T18:31:31.515Z,11.63
2023-03-02T18:33:59.024Z,11.23
2023-03-02T18:36:25.527Z,12.80
2023-03-02T18:38:53.859Z,12.77
2023-03-02T18:41:21.567Z,12.68
2023-03-02T18:43:49.291Z,12.45
2023-03-02T18:46:24.348Z,12.27
2023-03-02T18:48:52.025Z,11.82
2023-03-02T18:51:19.558Z,13.07
2023-03-02T18:53:48.840Z,12.73
2023-03-02T18:56:17.778Z,12.48
2023-03-02T18:58:44.913Z,12.47
2023-03-02T19:01:11.829Z,12.40
2023-03-02T19:03:38.860Z,11.63
2023-03-02T19:06:07.328Z,11.30
2023-03-02T19:08:35.512Z,12.20
2023-03-02T19:11:02.283Z,10.93
2023-03-02T19:13:31.129Z,11.23
2023-03-02T19:15:57.724Z,11.60
2023-03-02T19:18:25.426Z,10.57
2023-03-02T19:20:54.255Z,10.90
2023-03-02T19:23:21.046Z,10.00
2023-03-02T19:25:47.681Z,11.32
2023-03-02T19:28:14.538Z,11.18
2023-03-02T19:30:41.145Z,10.05
2023-03-02T19:33:09.305Z,11.38
2023-03-02T19:35:37.615Z,12.43
2023-03-02T19:38:05.281Z,11.18
2023-03-02T19:40:37.174Z,10.75
2023-03-02T19:43:04.739Z,10.40
2023-03-02T19:45:34.247Z,11.45
2023-03-02T19:48:01.564Z,11.57
2023-03-02T19:50:28.644Z,11.38
2023-03-02T19:52:55.981Z,11.77
2023-03-02T19:55:24.263Z,10.93
2023-03-02T19:57:59.854Z,10.15
2023-03-02T20:00:30.008Z,10.67
2023-03-02T20:02:57.622Z,10.85
2023-03-02T20:05:26.029Z,10.88
2023-03-02T20:07:52.661Z,11.85
2023-03-02T20:10:27.121Z,12.05
2023-03-02T20:12:53.875Z,11.37
2023-03-02T20:15:28.606Z,11.95
2023-03-02T20:17:55.289Z,11.88
2023-03-02T20:20:22.196Z,12.32
2023-03-02T20:22:49.462Z,11.27
2023-03-02T20:25:17.157Z,12.40
2023-03-02T20:27:43.813Z,12.98
2023-03-02T20:30:14.418Z,12.85
2023-03-02T20:32:41.627Z,11.07
2023-03-02T20:35:08.306Z,11.98
2023-03-02T20:37:34.954Z,12.53
2023-03-02T20:40:02.237Z,11.85
2023-03-02T20:42:31.251Z,11.45
2023-03-02T20:44:59.336Z,11.23
2023-03-02T20:47:26.229Z,13.10
2023-03-02T20:49:52.841Z,11.80
2023-03-02T20:52:19.388Z,12.68
2023-03-02T20:54:45.982Z,14.15
2023-03-02T20:57:15.897Z,12.30
2023-03-02T20:59:45.007Z,12.45
